sensor_id;sensor_type;location;lat;lon;timestamp;temperature;humidity
83729;DHT22;73707;56.480;-2.840;2023-12-28T00:00:05;9.00;99.90
83729;DHT22;73707;56.480;-2.840;2023-12-28T00:02:32;8.90;99.90
83729;DHT22;73707;56.480;-2.840;2023-12-28T00:04:58;8.90;99.90
83729;DHT22;73707;56.480;-2.840;2023-12-28T00:07:24;8.90;99.90
83729;DHT22;73707;56.480;-2.840;2023-12-28T00:09:49;8.90;99.90
83729;DHT22;73707;56.480;-2.840;2023-12-28T00:12:15;8.80;99.90
83729;DHT22;73707;56.480;-2.840;2023-12-28T00:14:41;8.90;99.90
83729;DHT22;73707;56.480;-2.840;2023-12-28T00:17:06;8.80;99.90
83729;DHT22;73707;56.480;-2.840;2023-12-28T00:19:32;8.80;99.90
83729;DHT22;73707;56.480;-2.840;2023-12-28T00:21:57;8.70;99.90
83729;DHT22;73707;56.480;-2.840;2023-12-28T00:24:23;8.70;99.90
83729;DHT22;73707;56.480;-2.840;2023-12-28T00:26:49;8.70;99.90
83729;DHT22;73707;56.480;-2.840;2023-12-28T00:29:15;8.60;99.90
83729;DHT22;73707;56.480;-2.840;2023-12-28T00:31:40;8.60;99.90
83729;DHT22;73707;56.480;-2.840;2023-12-28T00:34:06;8.60;99.90
83729;DHT22;73707;56.480;-2.840;2023-12-28T00:36:32;8.60;99.90
83729;DHT22;73707;56.480;-2.840;2023-12-28T00:38:57;8.60;99.90
83729;DHT22;73707;56.480;-2.840;2023-12-28T00:41:23;8.60;99.90
83729;DHT22;73707;56.480;-2.840;2023-12-28T00:43:49;8.60;99.90
83729;DHT22;73707;56.480;-2.840;2023-12-28T00:46:14;8.50;99.90
83729;DHT22;73707;56.480;-2.840;2023-12-28T00:48:40;8.60;99.90
83729;DHT22;73707;56.480;-2.840;2023-12-28T00:51:06;8.50;99.90
83729;DHT22;73707;56.480;-2.840;2023-12-28T00:53:31;8.60;99.90
83729;DHT22;73707;56.480;-2.840;2023-12-28T00:55:57;8.60;99.90
83729;DHT22;73707;56.480;-2.840;2023-12-28T00:58:23;8.60;99.90
83729;DHT22;73707;56.480;-2.840;2023-12-28T01:00:48;8.60;99.90
83729;DHT22;73707;56.480;-2.840;2023-12-28T01:03:14;8.60;99.90
83729;DHT22;73707;56.480;-2.840;2023-12-28T01:05:40;8.60;99.90
83729;DHT22;73707;56.480;-2.840;2023-12-28T01:08:05;8.60;99.90
83729;DHT22;73707;56.480;-2.840;2023-12-28T01:10:31;8.60;99.90
83729;DHT22;73707;56.480;-2.840;2023-12-28T01:12:57;8.60;99.90
83729;DHT22;73707;56.480;-2.840;2023-12-28T01:15:22;8.50;99.90
83729;DHT22;73707;56.480;-2.840;2023-12-28T01:17:48;8.50;99.90
83729;DHT22;73707;56.480;-2.840;2023-12-28T01:20:14;8.50;99.90
83729;DHT22;73707;56.480;-2.840;2023-12-28T01:22:39;8.50;99.90
83729;DHT22;73707;56.480;-2.840;2023-12-28T01:25:05;8.50;99.90
83729;DHT22;73707;56.480;-2.840;2023-12-28T01:27:31;8.40;99.90
83729;DHT22;73707;56.480;-2.840;2023-12-28T01:29:57;8.40;99.90
83729;DHT22;73707;56.480;-2.840;2023-12-28T01:32:23;8.40;99.90
83729;DHT22;73707;56.480;-2.840;2023-12-28T01:34:48;8.40;99.90
83729;DHT22;73707;56.480;-2.840;2023-12-28T01:37:14;8.40;99.90
83729;DHT22;73707;56.480;-2.840;2023-12-28T01:39:39;8.40;99.90
83729;DHT22;73707;56.480;-2.840;2023-12-28T01:42:05;8.40;99.90
83729;DHT22;73707;56.480;-2.840;2023-12-28T01:44:31;8.40;99.90
83729;DHT22;73707;56.480;-2.840;2023-12-28T01:46:58;8.40;99.90
83729;DHT22;73707;56.480;-2.840;2023-12-28T01:49:24;8.40;99.90
83729;DHT22;73707;56.480;-2.840;2023-12-28T01:51:50;8.40;99.90
83729;DHT22;73707;56.480;-2.840;2023-12-28T01:54:16;8.40;99.90
83729;DHT22;73707;56.480;-2.840;2023-12-28T01:56:44;8.40;99.90
83729;DHT22;73707;56.480;-2.840;2023-12-28T01:59:10;8.40;99.90
83729;DHT22;73707;56.480;-2.840;2023-12-28T02:01:36;8.40;99.90
83729;DHT22;73707;56.480;-2.840;2023-12-28T02:04:02;8.50;99.90
83729;DHT22;73707;56.480;-2.840;2023-12-28T02:06:28;8.50;99.90
83729;DHT22;73707;56.480;-2.840;2023-12-28T02:08:54;8.50;99.90
83729;DHT22;73707;56.480;-2.840;2023-12-28T02:11:20;8.50;99.90
83729;DHT22;73707;56.480;-2.840;2023-12-28T02:13:46;8.40;99.90
83729;DHT22;73707;56.480;-2.840;2023-12-28T02:16:35;8.40;99.90
83729;DHT22;73707;56.480;-2.840;2023-12-28T02:19:18;8.50;99.90
83729;DHT22;73707;56.480;-2.840;2023-12-28T02:21:50;8.40;99.90
83729;DHT22;73707;56.480;-2.840;2023-12-28T02:24:15;8.40;99.90
83729;DHT22;73707;56.480;-2.840;2023-12-28T02:26:41;8.30;99.90
83729;DHT22;73707;56.480;-2.840;2023-12-28T02:29:07;8.40;99.90
83729;DHT22;73707;56.480;-2.840;2023-12-28T02:31:39;8.40;99.90
83729;DHT22;73707;56.480;-2.840;2023-12-28T02:34:21;8.30;99.90
83729;DHT22;73707;56.480;-2.840;2023-12-28T02:36:48;8.30;99.90
83729;DHT22;73707;56.480;-2.840;2023-12-28T02:39:15;8.40;99.90
83729;DHT22;73707;56.480;-2.840;2023-12-28T02:41:45;8.40;99.90
83729;DHT22;73707;56.480;-2.840;2023-12-28T02:44:12;8.40;99.90
83729;DHT22;73707;56.480;-2.840;2023-12-28T02:46:38;8.40;99.90
83729;DHT22;73707;56.480;-2.840;2023-12-28T02:49:03;8.40;99.90
83729;DHT22;73707;56.480;-2.840;2023-12-28T02:51:29;8.40;99.90
83729;DHT22;73707;56.480;-2.840;2023-12-28T02:53:55;8.40;99.90
83729;DHT22;73707;56.480;-2.840;2023-12-28T02:56:20;8.40;99.90
83729;DHT22;73707;56.480;-2.840;2023-12-28T02:58:46;8.40;99.90
83729;DHT22;73707;56.480;-2.840;2023-12-28T03:01:12;8.40;99.90
83729;DHT22;73707;56.480;-2.840;2023-12-28T03:03:37;8.50;99.90
83729;DHT22;73707;56.480;-2.840;2023-12-28T03:06:03;8.50;99.90
83729;DHT22;73707;56.480;-2.840;2023-12-28T03:08:29;8.50;99.90
83729;DHT22;73707;56.480;-2.840;2023-12-28T03:10:55;8.50;99.90
83729;DHT22;73707;56.480;-2.840;2023-12-28T03:13:21;8.50;99.90
83729;DHT22;73707;56.480;-2.840;2023-12-28T03:15:46;8.50;99.90
83729;DHT22;73707;56.480;-2.840;2023-12-28T03:18:12;8.60;99.90
83729;DHT22;73707;56.480;-2.840;2023-12-28T03:20:38;8.60;99.90
83729;DHT22;73707;56.480;-2.840;2023-12-28T03:23:03;8.60;99.90
83729;DHT22;73707;56.480;-2.840;2023-12-28T03:25:29;8.60;99.90
83729;DHT22;73707;56.480;-2.840;2023-12-28T03:27:55;8.60;99.90
83729;DHT22;73707;56.480;-2.840;2023-12-28T03:30:21;8.60;99.90
83729;DHT22;73707;56.480;-2.840;2023-12-28T03:32:46;8.60;99.90
83729;DHT22;73707;56.480;-2.840;2023-12-28T03:35:12;8.60;99.90
83729;DHT22;73707;56.480;-2.840;2023-12-28T03:37:38;8.60;99.90
83729;DHT22;73707;56.480;-2.840;2023-12-28T03:40:04;8.60;99.90
83729;DHT22;73707;56.480;-2.840;2023-12-28T03:42:30;8.70;99.90
83729;DHT22;73707;56.480;-2.840;2023-12-28T03:44:56;8.70;99.90
83729;DHT22;73707;56.480;-2.840;2023-12-28T03:47:22;8.70;99.90
83729;DHT22;73707;56.480;-2.840;2023-12-28T03:49:49;8.70;99.90
83729;DHT22;73707;56.480;-2.840;2023-12-28T03:52:15;8.60;99.90
83729;DHT22;73707;56.480;-2.840;2023-12-28T03:54:40;8.60;99.90
83729;DHT22;73707;56.480;-2.840;2023-12-28T03:57:06;8.70;99.90
83729;DHT22;73707;56.480;-2.840;2023-12-28T03:59:32;8.60;99.90
83729;DHT22;73707;56.480;-2.840;2023-12-28T04:01:57;8.70;99.90
83729;DHT22;73707;56.480;-2.840;2023-12-28T04:04:23;8.70;99.90
83729;DHT22;73707;56.480;-2.840;2023-12-28T04:06:49;8.70;99.90
83729;DHT22;73707;56.480;-2.840;2023-12-28T04:09:14;8.70;99.90
83729;DHT22;73707;56.480;-2.840;2023-12-28T04:11:40;8.70;99.90
83729;DHT22;73707;56.480;-2.840;2023-12-28T04:14:06;8.70;99.90
83729;DHT22;73707;56.480;-2.840;2023-12-28T04:16:31;8.70;99.90
83729;DHT22;73707;56.480;-2.840;2023-12-28T04:18:57;8.60;99.90
83729;DHT22;73707;56.480;-2.840;2023-12-28T04:21:23;8.60;99.90
83729;DHT22;73707;56.480;-2.840;2023-12-28T04:23:48;8.60;99.90
83729;DHT22;73707;56.480;-2.840;2023-12-28T04:26:17;8.60;99.90
83729;DHT22;73707;56.480;-2.840;2023-12-28T04:28:43;8.50;99.90
83729;DHT22;73707;56.480;-2.840;2023-12-28T04:31:08;8.50;99.90
83729;DHT22;73707;56.480;-2.840;2023-12-28T04:33:34;8.50;99.90
83729;DHT22;73707;56.480;-2.840;2023-12-28T04:36:03;8.50;99.90
83729;DHT22;73707;56.480;-2.840;2023-12-28T04:38:32;8.50;99.90
83729;DHT22;73707;56.480;-2.840;2023-12-28T04:40:58;8.60;99.90
83729;DHT22;73707;56.480;-2.840;2023-12-28T04:43:24;8.60;99.90
83729;DHT22;73707;56.480;-2.840;2023-12-28T04:45:51;8.60;99.90
83729;DHT22;73707;56.480;-2.840;2023-12-28T04:48:16;8.60;99.90
83729;DHT22;73707;56.480;-2.840;2023-12-28T04:50:49;8.50;99.90
83729;DHT22;73707;56.480;-2.840;2023-12-28T04:53:15;8.50;99.90
83729;DHT22;73707;56.480;-2.840;2023-12-28T04:55:41;8.50;99.90
83729;DHT22;73707;56.480;-2.840;2023-12-28T04:58:07;8.50;99.90
83729;DHT22;73707;56.480;-2.840;2023-12-28T05:00:33;8.40;99.90
83729;DHT22;73707;56.480;-2.840;2023-12-28T05:02:59;8.30;99.90
83729;DHT22;73707;56.480;-2.840;2023-12-28T05:05:25;8.30;99.90
83729;DHT22;73707;56.480;-2.840;2023-12-28T05:07:50;8.20;99.90
83729;DHT22;73707;56.480;-2.840;2023-12-28T05:10:16;8.20;99.90
83729;DHT22;73707;56.480;-2.840;2023-12-28T05:12:42;8.20;99.90
83729;DHT22;73707;56.480;-2.840;2023-12-28T05:15:08;8.20;99.90
83729;DHT22;73707;56.480;-2.840;2023-12-28T05:17:34;8.20;99.90
83729;DHT22;73707;56.480;-2.840;2023-12-28T05:19:59;8.20;99.90
83729;DHT22;73707;56.480;-2.840;2023-12-28T05:22:25;8.20;99.90
83729;DHT22;73707;56.480;-2.840;2023-12-28T05:24:51;8.20;99.90
83729;DHT22;73707;56.480;-2.840;2023-12-28T05:27:16;8.20;99.90
83729;DHT22;73707;56.480;-2.840;2023-12-28T05:29:42;8.20;99.90
83729;DHT22;73707;56.480;-2.840;2023-12-28T05:32:08;8.20;99.90
83729;DHT22;73707;56.480;-2.840;2023-12-28T05:34:33;8.20;99.90
83729;DHT22;73707;56.480;-2.840;2023-12-28T05:36:59;8.20;99.90
83729;DHT22;73707;56.480;-2.840;2023-12-28T05:39:24;8.20;99.90
83729;DHT22;73707;56.480;-2.840;2023-12-28T05:41:50;8.20;99.90
83729;DHT22;73707;56.480;-2.840;2023-12-28T05:44:16;8.30;99.90
83729;DHT22;73707;56.480;-2.840;2023-12-28T05:46:42;8.20;99.90
83729;DHT22;73707;56.480;-2.840;2023-12-28T05:49:08;8.20;99.90
83729;DHT22;73707;56.480;-2.840;2023-12-28T05:51:40;8.20;99.90
83729;DHT22;73707;56.480;-2.840;2023-12-28T05:54:06;8.20;99.90
83729;DHT22;73707;56.480;-2.840;2023-12-28T05:56:32;8.20;99.90
83729;DHT22;73707;56.480;-2.840;2023-12-28T05:58:58;8.20;99.90
83729;DHT22;73707;56.480;-2.840;2023-12-28T06:01:24;8.20;99.90
83729;DHT22;73707;56.480;-2.840;2023-12-28T06:03:49;8.20;99.90
83729;DHT22;73707;56.480;-2.840;2023-12-28T06:06:18;8.20;99.90
83729;DHT22;73707;56.480;-2.840;2023-12-28T06:08:43;8.20;99.90
83729;DHT22;73707;56.480;-2.840;2023-12-28T06:11:09;8.20;99.90
83729;DHT22;73707;56.480;-2.840;2023-12-28T06:13:35;8.20;99.90
83729;DHT22;73707;56.480;-2.840;2023-12-28T06:16:01;8.20;99.90
83729;DHT22;73707;56.480;-2.840;2023-12-28T06:18:26;8.20;99.90
83729;DHT22;73707;56.480;-2.840;2023-12-28T06:20:52;8.20;99.90
83729;DHT22;73707;56.480;-2.840;2023-12-28T06:23:18;8.20;99.90
83729;DHT22;73707;56.480;-2.840;2023-12-28T06:25:43;8.20;99.90
83729;DHT22;73707;56.480;-2.840;2023-12-28T06:28:09;8.20;99.90
83729;DHT22;73707;56.480;-2.840;2023-12-28T06:30:35;8.20;99.90
83729;DHT22;73707;56.480;-2.840;2023-12-28T06:33:00;8.20;99.90
83729;DHT22;73707;56.480;-2.840;2023-12-28T06:35:26;8.10;99.90
83729;DHT22;73707;56.480;-2.840;2023-12-28T06:37:52;8.10;99.90
83729;DHT22;73707;56.480;-2.840;2023-12-28T06:40:17;8.10;99.90
83729;DHT22;73707;56.480;-2.840;2023-12-28T06:42:43;8.10;99.90
83729;DHT22;73707;56.480;-2.840;2023-12-28T06:45:10;8.10;99.90
83729;DHT22;73707;56.480;-2.840;2023-12-28T06:47:36;8.10;99.90
83729;DHT22;73707;56.480;-2.840;2023-12-28T06:50:02;8.10;99.90
83729;DHT22;73707;56.480;-2.840;2023-12-28T06:52:27;8.20;99.90
83729;DHT22;73707;56.480;-2.840;2023-12-28T06:54:54;8.10;99.90
83729;DHT22;73707;56.480;-2.840;2023-12-28T06:57:20;8.10;99.90
83729;DHT22;73707;56.480;-2.840;2023-12-28T06:59:45;8.10;99.90
83729;DHT22;73707;56.480;-2.840;2023-12-28T07:02:11;8.10;99.90
83729;DHT22;73707;56.480;-2.840;2023-12-28T07:04:36;8.10;99.90
83729;DHT22;73707;56.480;-2.840;2023-12-28T07:07:03;8.00;99.90
83729;DHT22;73707;56.480;-2.840;2023-12-28T07:09:29;8.00;99.90
83729;DHT22;73707;56.480;-2.840;2023-12-28T07:11:55;7.90;99.90
83729;DHT22;73707;56.480;-2.840;2023-12-28T07:14:20;7.90;99.90
83729;DHT22;73707;56.480;-2.840;2023-12-28T07:16:46;7.90;99.90
83729;DHT22;73707;56.480;-2.840;2023-12-28T07:19:12;7.90;99.90
83729;DHT22;73707;56.480;-2.840;2023-12-28T07:21:37;7.90;99.90
83729;DHT22;73707;56.480;-2.840;2023-12-28T07:24:03;7.90;99.90
83729;DHT22;73707;56.480;-2.840;2023-12-28T07:26:29;7.90;99.90
83729;DHT22;73707;56.480;-2.840;2023-12-28T07:28:54;7.90;99.90
83729;DHT22;73707;56.480;-2.840;2023-12-28T07:31:27;7.90;99.90
83729;DHT22;73707;56.480;-2.840;2023-12-28T07:33:54;7.90;99.90
83729;DHT22;73707;56.480;-2.840;2023-12-28T07:36:20;7.90;99.90
83729;DHT22;73707;56.480;-2.840;2023-12-28T07:38:46;7.90;99.90
83729;DHT22;73707;56.480;-2.840;2023-12-28T07:41:12;8.00;99.90
83729;DHT22;73707;56.480;-2.840;2023-12-28T07:43:37;8.00;99.90
83729;DHT22;73707;56.480;-2.840;2023-12-28T07:46:03;8.00;99.90
83729;DHT22;73707;56.480;-2.840;2023-12-28T07:48:30;8.00;99.90
83729;DHT22;73707;56.480;-2.840;2023-12-28T07:50:56;8.00;99.90
83729;DHT22;73707;56.480;-2.840;2023-12-28T07:53:22;8.00;99.90
83729;DHT22;73707;56.480;-2.840;2023-12-28T07:55:48;8.10;99.90
83729;DHT22;73707;56.480;-2.840;2023-12-28T07:58:14;8.10;99.90
83729;DHT22;73707;56.480;-2.840;2023-12-28T08:00:40;8.10;99.90
83729;DHT22;73707;56.480;-2.840;2023-12-28T08:03:06;8.20;99.90
83729;DHT22;73707;56.480;-2.840;2023-12-28T08:05:31;8.20;99.90
83729;DHT22;73707;56.480;-2.840;2023-12-28T08:07:57;8.20;99.90
83729;DHT22;73707;56.480;-2.840;2023-12-28T08:10:23;8.20;99.90
83729;DHT22;73707;56.480;-2.840;2023-12-28T08:12:48;8.30;99.90
83729;DHT22;73707;56.480;-2.840;2023-12-28T08:15:14;8.30;99.90
83729;DHT22;73707;56.480;-2.840;2023-12-28T08:17:40;8.30;99.90
83729;DHT22;73707;56.480;-2.840;2023-12-28T08:20:06;8.30;99.90
83729;DHT22;73707;56.480;-2.840;2023-12-28T08:22:32;8.30;99.90
83729;DHT22;73707;56.480;-2.840;2023-12-28T08:24:58;8.30;99.90
83729;DHT22;73707;56.480;-2.840;2023-12-28T08:27:23;8.30;99.90
83729;DHT22;73707;56.480;-2.840;2023-12-28T08:29:49;8.30;99.90
83729;DHT22;73707;56.480;-2.840;2023-12-28T08:32:15;8.20;99.90
83729;DHT22;73707;56.480;-2.840;2023-12-28T08:34:42;8.30;99.90
83729;DHT22;73707;56.480;-2.840;2023-12-28T08:37:08;8.20;99.90
83729;DHT22;73707;56.480;-2.840;2023-12-28T08:39:34;8.20;99.90
83729;DHT22;73707;56.480;-2.840;2023-12-28T08:42:00;8.20;99.90
83729;DHT22;73707;56.480;-2.840;2023-12-28T08:44:26;8.20;99.90
83729;DHT22;73707;56.480;-2.840;2023-12-28T08:46:51;8.20;99.90
83729;DHT22;73707;56.480;-2.840;2023-12-28T08:49:17;8.20;99.90
83729;DHT22;73707;56.480;-2.840;2023-12-28T08:51:43;8.20;99.90
83729;DHT22;73707;56.480;-2.840;2023-12-28T08:54:08;8.20;99.90
83729;DHT22;73707;56.480;-2.840;2023-12-28T08:56:34;8.20;99.90
83729;DHT22;73707;56.480;-2.840;2023-12-28T08:59:01;8.20;99.90
83729;DHT22;73707;56.480;-2.840;2023-12-28T09:01:26;8.20;99.90
83729;DHT22;73707;56.480;-2.840;2023-12-28T09:03:53;8.20;99.90
83729;DHT22;73707;56.480;-2.840;2023-12-28T09:06:20;8.10;99.90
83729;DHT22;73707;56.480;-2.840;2023-12-28T09:08:49;8.20;99.90
83729;DHT22;73707;56.480;-2.840;2023-12-28T09:11:16;8.10;99.90
83729;DHT22;73707;56.480;-2.840;2023-12-28T09:13:42;8.10;99.90
83729;DHT22;73707;56.480;-2.840;2023-12-28T09:16:10;8.00;99.90
83729;DHT22;73707;56.480;-2.840;2023-12-28T09:18:36;8.00;99.90
83729;DHT22;73707;56.480;-2.840;2023-12-28T09:21:06;8.00;99.90
83729;DHT22;73707;56.480;-2.840;2023-12-28T09:23:33;8.00;99.90
83729;DHT22;73707;56.480;-2.840;2023-12-28T09:26:00;8.00;99.90
83729;DHT22;73707;56.480;-2.840;2023-12-28T09:28:26;8.00;99.90
83729;DHT22;73707;56.480;-2.840;2023-12-28T09:30:51;8.00;99.90
83729;DHT22;73707;56.480;-2.840;2023-12-28T09:33:17;8.00;99.90
83729;DHT22;73707;56.480;-2.840;2023-12-28T09:35:43;8.00;99.90
83729;DHT22;73707;56.480;-2.840;2023-12-28T09:38:09;8.00;99.90
83729;DHT22;73707;56.480;-2.840;2023-12-28T09:40:38;8.00;99.90
83729;DHT22;73707;56.480;-2.840;2023-12-28T09:43:25;8.00;99.90
83729;DHT22;73707;56.480;-2.840;2023-12-28T09:45:52;8.00;99.90
83729;DHT22;73707;56.480;-2.840;2023-12-28T09:48:19;8.00;99.90
83729;DHT22;73707;56.480;-2.840;2023-12-28T09:50:49;8.00;99.90
83729;DHT22;73707;56.480;-2.840;2023-12-28T09:53:15;8.10;99.90
83729;DHT22;73707;56.480;-2.840;2023-12-28T09:55:40;8.10;99.90
83729;DHT22;73707;56.480;-2.840;2023-12-28T09:58:06;8.20;99.90
83729;DHT22;73707;56.480;-2.840;2023-12-28T10:00:32;8.20;99.90
83729;DHT22;73707;56.480;-2.840;2023-12-28T10:02:58;8.20;99.90
83729;DHT22;73707;56.480;-2.840;2023-12-28T10:05:24;8.30;99.90
83729;DHT22;73707;56.480;-2.840;2023-12-28T10:07:50;8.40;99.90
83729;DHT22;73707;56.480;-2.840;2023-12-28T10:10:16;8.40;99.90
83729;DHT22;73707;56.480;-2.840;2023-12-28T10:12:42;8.40;99.90
83729;DHT22;73707;56.480;-2.840;2023-12-28T10:15:09;8.50;99.90
83729;DHT22;73707;56.480;-2.840;2023-12-28T10:17:35;8.50;99.90
83729;DHT22;73707;56.480;-2.840;2023-12-28T10:20:04;8.60;99.90
83729;DHT22;73707;56.480;-2.840;2023-12-28T10:22:32;8.60;99.90
83729;DHT22;73707;56.480;-2.840;2023-12-28T10:24:59;8.70;99.90
83729;DHT22;73707;56.480;-2.840;2023-12-28T10:27:26;8.70;99.90
83729;DHT22;73707;56.480;-2.840;2023-12-28T10:29:54;8.70;99.90
83729;DHT22;73707;56.480;-2.840;2023-12-28T10:32:21;8.70;99.90
83729;DHT22;73707;56.480;-2.840;2023-12-28T10:34:48;8.80;99.90
83729;DHT22;73707;56.480;-2.840;2023-12-28T10:37:14;8.80;99.90
83729;DHT22;73707;56.480;-2.840;2023-12-28T10:39:48;8.90;99.90
83729;DHT22;73707;56.480;-2.840;2023-12-28T10:44:52;9.10;99.90
83729;DHT22;73707;56.480;-2.840;2023-12-28T10:47:21;9.20;99.90
83729;DHT22;73707;56.480;-2.840;2023-12-28T10:49:53;9.30;99.90
83729;DHT22;73707;56.480;-2.840;2023-12-28T10:52:21;9.40;99.90
83729;DHT22;73707;56.480;-2.840;2023-12-28T11:00:31;9.60;99.90
83729;DHT22;73707;56.480;-2.840;2023-12-28T11:03:02;9.60;99.90
83729;DHT22;73707;56.480;-2.840;2023-12-28T11:05:29;9.60;99.90
83729;DHT22;73707;56.480;-2.840;2023-12-28T11:07:57;9.60;99.90
83729;DHT22;73707;56.480;-2.840;2023-12-28T11:10:24;9.60;99.90
83729;DHT22;73707;56.480;-2.840;2023-12-28T11:12:52;9.50;99.90
83729;DHT22;73707;56.480;-2.840;2023-12-28T11:15:19;9.50;99.90
83729;DHT22;73707;56.480;-2.840;2023-12-28T11:17:44;9.50;99.90
83729;DHT22;73707;56.480;-2.840;2023-12-28T11:20:11;9.50;99.90
83729;DHT22;73707;56.480;-2.840;2023-12-28T11:22:39;9.50;99.90
83729;DHT22;73707;56.480;-2.840;2023-12-28T11:25:05;9.40;99.90
83729;DHT22;73707;56.480;-2.840;2023-12-28T11:27:35;9.40;99.90
83729;DHT22;73707;56.480;-2.840;2023-12-28T11:30:04;9.40;99.90
83729;DHT22;73707;56.480;-2.840;2023-12-28T11:32:36;9.40;99.90
83729;DHT22;73707;56.480;-2.840;2023-12-28T11:35:01;9.50;99.90
83729;DHT22;73707;56.480;-2.840;2023-12-28T11:37:29;9.50;99.90
83729;DHT22;73707;56.480;-2.840;2023-12-28T11:39:56;9.50;99.90
83729;DHT22;73707;56.480;-2.840;2023-12-28T11:42:23;9.50;99.90
83729;DHT22;73707;56.480;-2.840;2023-12-28T11:44:54;9.50;99.90
83729;DHT22;73707;56.480;-2.840;2023-12-28T11:47:24;9.60;99.90
83729;DHT22;73707;56.480;-2.840;2023-12-28T11:49:50;9.50;99.90
83729;DHT22;73707;56.480;-2.840;2023-12-28T11:52:23;9.60;99.90
83729;DHT22;73707;56.480;-2.840;2023-12-28T11:54:50;9.60;99.90
83729;DHT22;73707;56.480;-2.840;2023-12-28T11:57:16;9.60;99.90
83729;DHT22;73707;56.480;-2.840;2023-12-28T11:59:41;9.60;99.90
83729;DHT22;73707;56.480;-2.840;2023-12-28T12:02:08;9.70;99.90
83729;DHT22;73707;56.480;-2.840;2023-12-28T12:04:34;9.70;99.90
83729;DHT22;73707;56.480;-2.840;2023-12-28T12:07:04;9.60;99.90
83729;DHT22;73707;56.480;-2.840;2023-12-28T12:09:30;9.70;99.90
83729;DHT22;73707;56.480;-2.840;2023-12-28T12:12:03;9.70;99.90
83729;DHT22;73707;56.480;-2.840;2023-12-28T12:14:30;9.70;99.90
83729;DHT22;73707;56.480;-2.840;2023-12-28T12:17:00;9.80;99.90
83729;DHT22;73707;56.480;-2.840;2023-12-28T12:19:26;9.80;99.90
83729;DHT22;73707;56.480;-2.840;2023-12-28T12:21:53;9.90;99.90
83729;DHT22;73707;56.480;-2.840;2023-12-28T12:24:19;10.00;99.90
83729;DHT22;73707;56.480;-2.840;2023-12-28T12:26:49;10.10;99.90
83729;DHT22;73707;56.480;-2.840;2023-12-28T12:29:15;10.20;99.90
83729;DHT22;73707;56.480;-2.840;2023-12-28T12:31:41;10.40;99.90
83729;DHT22;73707;56.480;-2.840;2023-12-28T12:34:11;10.40;99.90
83729;DHT22;73707;56.480;-2.840;2023-12-28T12:36:37;10.50;99.90
83729;DHT22;73707;56.480;-2.840;2023-12-28T12:39:04;10.60;99.90
83729;DHT22;73707;56.480;-2.840;2023-12-28T12:41:32;10.70;99.90
83729;DHT22;73707;56.480;-2.840;2023-12-28T12:43:59;10.80;99.90
83729;DHT22;73707;56.480;-2.840;2023-12-28T12:46:25;10.80;99.90
83729;DHT22;73707;56.480;-2.840;2023-12-28T12:48:58;10.90;99.90
83729;DHT22;73707;56.480;-2.840;2023-12-28T12:51:25;11.00;99.90
83729;DHT22;73707;56.480;-2.840;2023-12-28T12:53:58;11.20;99.90
83729;DHT22;73707;56.480;-2.840;2023-12-28T12:56:26;11.30;99.90
83729;DHT22;73707;56.480;-2.840;2023-12-28T12:58:53;11.30;99.90
83729;DHT22;73707;56.480;-2.840;2023-12-28T13:01:19;11.30;99.90
83729;DHT22;73707;56.480;-2.840;2023-12-28T13:03:46;11.40;99.90
83729;DHT22;73707;56.480;-2.840;2023-12-28T13:06:12;11.30;99.90
83729;DHT22;73707;56.480;-2.840;2023-12-28T13:08:37;11.40;99.90
83729;DHT22;73707;56.480;-2.840;2023-12-28T13:11:03;11.40;99.90
83729;DHT22;73707;56.480;-2.840;2023-12-28T13:13:32;11.30;99.90
83729;DHT22;73707;56.480;-2.840;2023-12-28T13:15:58;11.30;99.90
83729;DHT22;73707;56.480;-2.840;2023-12-28T13:18:24;11.20;99.90
83729;DHT22;73707;56.480;-2.840;2023-12-28T13:20:49;11.30;99.90
83729;DHT22;73707;56.480;-2.840;2023-12-28T13:23:15;11.20;99.90
83729;DHT22;73707;56.480;-2.840;2023-12-28T13:25:41;11.20;99.90
83729;DHT22;73707;56.480;-2.840;2023-12-28T13:28:07;11.20;99.90
83729;DHT22;73707;56.480;-2.840;2023-12-28T13:30:34;11.20;99.90
83729;DHT22;73707;56.480;-2.840;2023-12-28T13:33:04;11.20;99.90
83729;DHT22;73707;56.480;-2.840;2023-12-28T13:35:30;11.20;99.90
83729;DHT22;73707;56.480;-2.840;2023-12-28T13:37:58;11.20;99.90
83729;DHT22;73707;56.480;-2.840;2023-12-28T13:40:24;11.20;99.90
83729;DHT22;73707;56.480;-2.840;2023-12-28T13:42:50;11.20;99.90
83729;DHT22;73707;56.480;-2.840;2023-12-28T13:45:16;11.20;99.90
83729;DHT22;73707;56.480;-2.840;2023-12-28T13:47:42;11.20;99.90
83729;DHT22;73707;56.480;-2.840;2023-12-28T13:50:08;11.20;99.90
83729;DHT22;73707;56.480;-2.840;2023-12-28T13:52:33;11.20;99.90
83729;DHT22;73707;56.480;-2.840;2023-12-28T13:54:59;11.20;99.90
83729;DHT22;73707;56.480;-2.840;2023-12-28T13:57:25;11.10;99.90
83729;DHT22;73707;56.480;-2.840;2023-12-28T13:59:50;11.10;99.90
83729;DHT22;73707;56.480;-2.840;2023-12-28T14:02:16;11.00;99.90
83729;DHT22;73707;56.480;-2.840;2023-12-28T14:04:42;11.00;99.90
83729;DHT22;73707;56.480;-2.840;2023-12-28T14:07:07;11.00;99.90
83729;DHT22;73707;56.480;-2.840;2023-12-28T14:09:33;10.90;99.90
83729;DHT22;73707;56.480;-2.840;2023-12-28T14:12:01;10.80;99.90
83729;DHT22;73707;56.480;-2.840;2023-12-28T14:14:26;10.70;99.90
83729;DHT22;73707;56.480;-2.840;2023-12-28T14:16:52;10.70;99.90
83729;DHT22;73707;56.480;-2.840;2023-12-28T14:19:18;10.70;99.90
83729;DHT22;73707;56.480;-2.840;2023-12-28T14:21:44;10.60;99.90
83729;DHT22;73707;56.480;-2.840;2023-12-28T14:24:10;10.50;99.90
83729;DHT22;73707;56.480;-2.840;2023-12-28T14:26:40;10.50;99.90
83729;DHT22;73707;56.480;-2.840;2023-12-28T14:29:10;10.40;99.90
83729;DHT22;73707;56.480;-2.840;2023-12-28T14:31:36;10.40;99.90
83729;DHT22;73707;56.480;-2.840;2023-12-28T14:34:03;10.40;99.90
83729;DHT22;73707;56.480;-2.840;2023-12-28T14:36:36;10.30;99.90
83729;DHT22;73707;56.480;-2.840;2023-12-28T14:39:06;10.30;99.90
83729;DHT22;73707;56.480;-2.840;2023-12-28T14:41:33;10.30;99.90
83729;DHT22;73707;56.480;-2.840;2023-12-28T14:43:59;10.30;99.90
83729;DHT22;73707;56.480;-2.840;2023-12-28T14:46:26;10.20;99.90
83729;DHT22;73707;56.480;-2.840;2023-12-28T14:48:52;10.20;99.90
83729;DHT22;73707;56.480;-2.840;2023-12-28T14:51:18;10.20;99.90
83729;DHT22;73707;56.480;-2.840;2023-12-28T14:53:44;10.20;99.90
83729;DHT22;73707;56.480;-2.840;2023-12-28T14:56:10;10.10;99.90
83729;DHT22;73707;56.480;-2.840;2023-12-28T14:58:37;10.10;99.90
83729;DHT22;73707;56.480;-2.840;2023-12-28T15:01:03;10.10;99.90
83729;DHT22;73707;56.480;-2.840;2023-12-28T15:03:29;10.10;99.90
83729;DHT22;73707;56.480;-2.840;2023-12-28T15:05:54;10.10;99.90
83729;DHT22;73707;56.480;-2.840;2023-12-28T15:08:24;10.00;99.90
83729;DHT22;73707;56.480;-2.840;2023-12-28T15:10:51;10.00;99.90
83729;DHT22;73707;56.480;-2.840;2023-12-28T15:13:17;10.00;99.90
83729;DHT22;73707;56.480;-2.840;2023-12-28T15:15:44;9.90;99.90
83729;DHT22;73707;56.480;-2.840;2023-12-28T15:18:10;9.90;99.90
83729;DHT22;73707;56.480;-2.840;2023-12-28T15:20:36;9.90;99.90
83729;DHT22;73707;56.480;-2.840;2023-12-28T15:23:02;9.80;99.90
83729;DHT22;73707;56.480;-2.840;2023-12-28T15:25:28;9.80;99.90
83729;DHT22;73707;56.480;-2.840;2023-12-28T15:27:54;9.80;99.90
83729;DHT22;73707;56.480;-2.840;2023-12-28T15:30:20;9.80;99.90